createdAt,value
2023-03-06T00:00:27.350Z,55.45
2023-03-06T00:02:54.139Z,55.04
2023-03-06T00:05:20.965Z,55.31
2023-03-06T00:07:48.015Z,55.17
2023-03-06T00:10:20.024Z,55.29
2023-03-06T00:12:47.131Z,55.55
2023-03-06T00:15:14.239Z,55.59
2023-03-06T00:17:41.510Z,55.53
2023-03-06T00:20:10.756Z,55.73
2023-03-06T00:22:38.134Z,55.92
2023-03-06T00:25:05.759Z,56.05
2023-03-06T00:27:33.057Z,55.87
2023-03-06T00:30:00.773Z,55.87
2023-03-06T00:32:29.404Z,56.30
2023-03-06T00:34:56.431Z,56.27
2023-03-06T00:37:25.026Z,56.33
2023-03-06T00:39:51.994Z,56.35
2023-03-06T00:42:19.305Z,56.29
2023-03-06T00:44:46.301Z,56.31
2023-03-06T00:47:13.562Z,56.30
2023-03-06T00:49:40.191Z,56.34
2023-03-06T00:52:07.079Z,56.00
2023-03-06T00:54:33.637Z,56.35
2023-03-06T00:57:00.258Z,56.22
2023-03-06T00:59:27.855Z,56.45
2023-03-06T01:01:55.247Z,56.57
2023-03-06T01:04:22.016Z,56.79
2023-03-06T01:06:49.335Z,56.89
2023-03-06T01:09:16.279Z,57.16
2023-03-06T01:11:42.964Z,56.85
2023-03-06T01:14:09.947Z,56.94
2023-03-06T01:16:36.702Z,57.12
2023-03-06T01:19:03.760Z,57.37
2023-03-06T01:21:30.617Z,57.37
2023-03-06T01:23:57.256Z,57.69
2023-03-06T01:26:24.420Z,57.61
2023-03-06T01:28:51.306Z,57.62
2023-03-06T01:31:17.975Z,57.90
2023-03-06T01:33:44.615Z,57.97
2023-03-06T01:36:13.030Z,57.85
2023-03-06T01:38:39.863Z,58.02
2023-03-06T01:41:06.965Z,58.05
2023-03-06T01:43:37.170Z,58.31
2023-03-06T01:46:27.255Z,58.38
2023-03-06T01:49:23.365Z,58.24
2023-03-06T01:52:00.141Z,58.38
2023-03-06T01:54:55.473Z,58.39
2023-03-06T01:57:30.974Z,58.60
2023-03-06T02:00:14.212Z,58.88
2023-03-06T02:02:43.890Z,58.90
2023-03-06T02:05:12.078Z,59.07
2023-03-06T02:07:41.936Z,59.26
2023-03-06T02:10:09.613Z,59.25
2023-03-06T02:12:37.681Z,59.13
2023-03-06T02:15:04.853Z,59.02
2023-03-06T02:17:35.193Z,59.43
2023-03-06T02:20:13.414Z,59.19
2023-03-06T02:22:58.276Z,59.45
2023-03-06T02:25:43.370Z,59.54
2023-03-06T02:28:17.524Z,59.06
2023-03-06T02:30:45.425Z,59.26
2023-03-06T02:33:14.601Z,58.98
2023-03-06T02:35:46.848Z,58.97
2023-03-06T02:38:19.076Z,59.21
2023-03-06T02:40:49.754Z,59.46
2023-03-06T02:43:21.311Z,59.51
2023-03-06T02:45:51.199Z,59.61
2023-03-06T02:48:18.896Z,59.44
2023-03-06T02:50:46.511Z,59.47
2023-03-06T02:53:14.907Z,59.49
2023-03-06T02:55:41.879Z,59.79
2023-03-06T02:58:08.913Z,59.76
2023-03-06T03:00:36.367Z,60.20
2023-03-06T03:03:04.157Z,60.15
2023-03-06T03:05:30.875Z,59.77
2023-03-06T03:07:57.777Z,59.80
2023-03-06T03:10:24.661Z,60.23
2023-03-06T03:12:51.526Z,60.14
2023-03-06T03:15:18.706Z,60.45
2023-03-06T03:17:45.470Z,60.40
2023-03-06T03:20:14.467Z,60.44
2023-03-06T03:22:43.323Z,60.59
2023-03-06T03:25:10.164Z,60.38
2023-03-06T03:27:36.772Z,59.99
2023-03-06T03:30:04.513Z,60.57
2023-03-06T03:32:31.281Z,60.28
2023-03-06T03:34:57.928Z,60.25
2023-03-06T03:37:24.557Z,60.46
2023-03-06T03:39:51.167Z,60.45
2023-03-06T03:42:17.874Z,60.59
2023-03-06T03:44:44.588Z,60.50
2023-03-06T03:47:11.191Z,60.70
2023-03-06T03:49:38.718Z,60.58
2023-03-06T03:52:05.496Z,60.52
2023-03-06T03:54:32.320Z,60.36
2023-03-06T03:56:58.913Z,60.50
2023-03-06T03:59:25.728Z,60.35
2023-03-06T04:01:53.019Z,60.02
2023-03-06T04:04:19.681Z,60.18
2023-03-06T04:06:46.272Z,60.64
2023-03-06T04:09:12.937Z,60.63
2023-03-06T04:11:39.631Z,60.58
2023-03-06T04:14:08.519Z,60.66
2023-03-06T04:16:35.450Z,60.77
2023-03-06T04:19:02.098Z,60.71
2023-03-06T04:21:28.787Z,60.92
2023-03-06T04:23:55.498Z,61.05
2023-03-06T04:26:22.134Z,60.74
2023-03-06T04:28:49.064Z,61.21
2023-03-06T04:31:16.177Z,61.24
2023-03-06T04:33:42.823Z,61.16
2023-03-06T04:36:25.020Z,61.60
2023-03-06T04:38:51.676Z,61.39
2023-03-06T04:41:18.415Z,61.31
2023-03-06T04:43:46.351Z,61.69
2023-03-06T04:46:13.046Z,61.67
2023-03-06T04:48:39.664Z,62.00
2023-03-06T04:51:06.615Z,61.98
2023-03-06T04:53:33.303Z,62.10
2023-03-06T04:55:59.943Z,62.09
2023-03-06T04:58:26.552Z,62.08
2023-03-06T05:00:53.409Z,62.09
2023-03-06T05:03:20.164Z,62.39
2023-03-06T05:05:46.826Z,62.00
2023-03-06T05:08:15.428Z,62.23
2023-03-06T05:10:43.558Z,61.93
2023-03-06T05:13:10.667Z,62.11
2023-03-06T05:15:40.159Z,61.89
2023-03-06T05:18:06.891Z,61.89
2023-03-06T05:20:33.983Z,61.71
2023-03-06T05:23:00.670Z,61.55
2023-03-06T05:25:27.269Z,61.90
2023-03-06T05:27:54.190Z,61.42
2023-03-06T05:30:23.136Z,61.71
2023-03-06T05:32:50.804Z,61.41
2023-03-06T05:35:23.007Z,61.36
2023-03-06T05:37:50.074Z,61.37
2023-03-06T05:40:17.864Z,61.70
2023-03-06T05:42:45.004Z,61.34
2023-03-06T05:45:12.189Z,61.52
2023-03-06T05:47:39.013Z,61.61
2023-03-06T05:50:08.466Z,61.30
2023-03-06T05:52:35.066Z,61.32
2023-03-06T05:55:01.988Z,61.28
2023-03-06T05:57:28.923Z,61.24
2023-03-06T05:59:55.594Z,61.16
2023-03-06T06:02:22.710Z,60.97
2023-03-06T06:04:49.613Z,60.81
2023-03-06T06:07:17.019Z,60.46
2023-03-06T06:09:45.662Z,60.47
2023-03-06T06:12:13.203Z,60.33
2023-03-06T06:14:40.028Z,60.11
2023-03-06T06:17:07.467Z,59.80
2023-03-06T06:19:34.311Z,59.89
2023-03-06T06:22:02.781Z,59.80
2023-03-06T06:24:30.670Z,59.43
2023-03-06T06:26:58.421Z,59.25
2023-03-06T06:29:26.089Z,59.49
2023-03-06T06:31:54.050Z,59.24
2023-03-06T06:34:21.574Z,58.87
2023-03-06T06:36:48.362Z,58.98
2023-03-06T06:39:17.017Z,58.84
2023-03-06T06:41:59.819Z,58.37
2023-03-06T06:44:31.256Z,58.35
2023-03-06T06:47:21.904Z,58.16
2023-03-06T06:49:48.262Z,57.91
2023-03-06T06:52:15.359Z,57.92
2023-03-06T06:54:41.918Z,57.15
2023-03-06T06:57:10.611Z,57.09
2023-03-06T06:59:37.457Z,57.20
2023-03-06T07:02:04.268Z,56.97
2023-03-06T07:04:31.294Z,56.94
2023-03-06T07:06:58.605Z,56.26
2023-03-06T07:09:25.495Z,56.37
2023-03-06T07:11:52.360Z,56.26
2023-03-06T07:14:19.073Z,56.18
2023-03-06T07:16:45.744Z,56.17
2023-03-06T07:19:12.400Z,55.72
2023-03-06T07:21:39.186Z,55.82
2023-03-06T07:24:06.349Z,55.49
2023-03-06T07:26:34.759Z,55.48
2023-03-06T07:29:02.490Z,54.99
2023-03-06T07:31:29.249Z,55.04
2023-03-06T07:33:56.204Z,54.94
2023-03-06T07:36:23.827Z,54.82
2023-03-06T07:38:50.614Z,54.59
2023-03-06T07:41:21.869Z,54.77
2023-03-06T07:43:50.430Z,54.54
2023-03-06T07:46:17.544Z,54.15
2023-03-06T07:48:44.718Z,54.21
2023-03-06T07:51:20.304Z,53.82
2023-03-06T07:53:48.502Z,53.65
2023-03-06T07:56:15.299Z,53.22
2023-03-06T07:58:44.539Z,53.16
2023-03-06T08:01:14.066Z,53.20
2023-03-06T08:03:41.191Z,53.46
2023-03-06T08:06:17.462Z,53.04
2023-03-06T08:08:46.609Z,52.47
2023-03-06T08:11:15.581Z,52.48
2023-03-06T08:13:42.912Z,52.40
2023-03-06T08:16:10.451Z,51.97
2023-03-06T08:18:39.834Z,52.02
2023-03-06T08:21:18.549Z,52.22
2023-03-06T08:23:45.983Z,51.89
2023-03-06T08:26:15.713Z,51.81
2023-03-06T08:28:43.078Z,51.91
2023-03-06T08:31:19.035Z,51.82
2023-03-06T08:33:45.647Z,51.98
2023-03-06T08:36:12.290Z,51.65
2023-03-06T08:38:39.242Z,51.68
2023-03-06T08:41:06.082Z,51.07
2023-03-06T08:43:33.770Z,50.98
2023-03-06T08:46:00.610Z,50.72
2023-03-06T08:48:27.945Z,50.74
2023-03-06T08:50:54.757Z,50.46
2023-03-06T08:53:28.013Z,50.55
2023-03-06T08:56:04.416Z,49.96
2023-03-06T08:58:31.151Z,49.69
2023-03-06T09:00:58.154Z,49.02
2023-03-06T09:03:25.757Z,48.86
2023-03-06T09:05:52.756Z,49.22
2023-03-06T09:08:19.333Z,48.81
2023-03-06T09:10:48.213Z,48.57
2023-03-06T09:13:15.089Z,48.43
2023-03-06T09:15:41.851Z,48.42
2023-03-06T09:18:08.600Z,48.26
2023-03-06T09:20:35.744Z,48.35
2023-03-06T09:23:02.331Z,47.91
2023-03-06T09:25:29.256Z,47.35
2023-03-06T09:28:10.382Z,47.19
2023-03-06T09:30:40.817Z,46.63
2023-03-06T09:33:08.003Z,46.68
2023-03-06T09:35:34.917Z,46.45
2023-03-06T09:38:01.647Z,46.25
2023-03-06T09:40:49.778Z,46.17
2023-03-06T09:43:25.745Z,45.10
2023-03-06T09:45:52.877Z,44.55
2023-03-06T09:48:28.939Z,44.03
2023-03-06T09:51:03.390Z,43.83
2023-03-06T09:54:01.220Z,43.64
2023-03-06T09:56:32.844Z,42.97
2023-03-06T09:59:17.642Z,42.59
2023-03-06T10:01:56.413Z,42.69
2023-03-06T10:04:42.459Z,42.68
2023-03-06T10:07:18.404Z,42.95
2023-03-06T10:10:01.336Z,42.94
2023-03-06T10:12:34.040Z,43.44
2023-03-06T10:15:22.541Z,43.39
2023-03-06T10:17:49.777Z,43.51
2023-03-06T10:20:23.027Z,43.37
2023-03-06T10:23:24.940Z,43.24
2023-03-06T10:25:57.261Z,43.10
2023-03-06T10:28:52.610Z,42.70
2023-03-06T10:31:23.705Z,42.08
2023-03-06T10:34:19.427Z,41.98
2023-03-06T10:36:46.034Z,41.86
2023-03-06T10:39:19.884Z,41.76
2023-03-06T10:41:47.996Z,41.14
2023-03-06T10:44:14.585Z,41.02
2023-03-06T10:46:44.707Z,40.48
2023-03-06T10:49:14.404Z,40.16
2023-03-06T10:51:57.203Z,40.08
2023-03-06T10:54:24.301Z,40.04
2023-03-06T10:56:50.961Z,39.77
2023-03-06T10:59:19.729Z,39.86
2023-03-06T11:01:51.600Z,39.65
2023-03-06T11:04:26.332Z,39.21
2023-03-06T11:07:07.511Z,38.92
2023-03-06T11:09:34.691Z,38.93
2023-03-06T11:12:36.750Z,38.76
2023-03-06T11:15:17.921Z,38.75
2023-03-06T11:17:58.263Z,38.78
2023-03-06T11:20:52.366Z,38.49
2023-03-06T11:23:25.522Z,38.20
2023-03-06T11:26:08.473Z,37.92
2023-03-06T11:28:42.386Z,37.68
2023-03-06T11:31:31.741Z,37.87
2023-03-06T11:34:11.152Z,37.99
2023-03-06T11:36:44.581Z,38.11
2023-03-06T11:39:28.310Z,38.07
2023-03-06T11:42:10.952Z,37.95
2023-03-06T11:44:44.570Z,37.91
2023-03-06T11:47:18.327Z,37.88
2023-03-06T11:49:54.011Z,37.68
2023-03-06T11:52:40.820Z,37.40
2023-03-06T11:55:15.552Z,37.50
2023-03-06T11:57:53.170Z,37.20
2023-03-06T12:00:24.068Z,37.15
2023-03-06T12:03:00.976Z,37.34
2023-03-06T12:05:34.089Z,37.24
2023-03-06T12:08:19.990Z,37.16
2023-03-06T12:10:54.837Z,37.27
2023-03-06T12:13:39.847Z,37.47
2023-03-06T12:16:32.340Z,37.50
2023-03-06T12:19:30.459Z,37.67
2023-03-06T12:22:26.403Z,37.52
2023-03-06T12:25:02.372Z,37.58
2023-03-06T12:27:32.067Z,37.48
2023-03-06T12:30:20.725Z,37.64
2023-03-06T12:32:53.486Z,37.79
2023-03-06T12:35:34.984Z,37.67
2023-03-06T12:38:16.984Z,37.68
2023-03-06T12:40:43.906Z,37.70
2023-03-06T12:43:47.496Z,37.58
2023-03-06T12:46:17.582Z,37.79
2023-03-06T12:48:52.973Z,37.66
2023-03-06T12:51:21.460Z,37.67
2023-03-06T12:53:49.980Z,37.85
2023-03-06T12:56:18.808Z,37.61
2023-03-06T12:58:49.490Z,37.57
2023-03-06T13:01:55.521Z,37.36
2023-03-06T13:04:40.552Z,37.44
2023-03-06T13:07:07.299Z,37.29
2023-03-06T13:09:58.641Z,37.19
2023-03-06T13:12:55.972Z,37.04
2023-03-06T13:15:39.219Z,37.22
2023-03-06T13:18:24.128Z,36.68
2023-03-06T13:20:57.639Z,36.64
2023-03-06T13:23:33.421Z,36.44
2023-03-06T13:26:02.842Z,36.46
2023-03-06T13:28:46.378Z,36.42
2023-03-06T13:31:26.567Z,36.49
2023-03-06T13:33:56.486Z,36.29
2023-03-06T13:36:23.152Z,36.35
2023-03-06T13:38:53.029Z,36.13
2023-03-06T13:41:23.493Z,36.02
2023-03-06T13:43:53.452Z,36.18
2023-03-06T13:46:36.230Z,36.02
2023-03-06T13:49:08.652Z,36.16
2023-03-06T13:51:55.635Z,36.41
2023-03-06T13:54:25.149Z,36.32
2023-03-06T13:56:54.400Z,36.34
2023-03-06T13:59:54.442Z,36.18
2023-03-06T14:03:06.797Z,36.30
2023-03-06T14:05:53.990Z,36.64
2023-03-06T14:08:24.860Z,36.45
2023-03-06T14:11:21.162Z,36.55
2023-03-06T14:13:54.570Z,36.84
2023-03-06T14:16:27.893Z,36.46
2023-03-06T14:18:57.582Z,36.42
2023-03-06T14:21:48.473Z,36.21
2023-03-06T14:24:20.300Z,36.46
2023-03-06T14:26:51.919Z,36.42
2023-03-06T14:29:24.707Z,36.23
2023-03-06T14:31:53.703Z,36.36
2023-03-06T14:34:30.377Z,36.40
2023-03-06T14:37:02.233Z,36.44
2023-03-06T14:39:39.532Z,36.21
2023-03-06T14:42:21.359Z,36.43
2023-03-06T14:44:49.882Z,36.43
2023-03-06T14:47:31.601Z,36.34
2023-03-06T14:50:21.554Z,36.32
2023-03-06T14:52:50.345Z,36.39
2023-03-06T14:55:23.664Z,36.36
2023-03-06T14:58:02.515Z,36.53
2023-03-06T15:00:38.168Z,36.46
2023-03-06T15:03:08.737Z,36.53
2023-03-06T15:05:35.729Z,36.63
2023-03-06T15:08:07.077Z,36.77
2023-03-06T15:10:35.887Z,36.94
2023-03-06T15:13:11.503Z,37.39
2023-03-06T15:15:38.410Z,37.17
2023-03-06T15:18:29.210Z,37.31
2023-03-06T15:21:08.272Z,37.70
2023-03-06T15:23:40.746Z,37.66
2023-03-06T15:26:29.445Z,37.84
2023-03-06T15:29:08.278Z,38.27
2023-03-06T15:31:39.058Z,38.57
2023-03-06T15:34:11.483Z,38.64
2023-03-06T15:36:40.476Z,38.94
2023-03-06T15:39:33.461Z,39.06
2023-03-06T15:42:01.708Z,39.15
2023-03-06T15:44:31.749Z,39.40
2023-03-06T15:47:08.448Z,39.62
2023-03-06T15:49:38.320Z,39.59
2023-03-06T15:52:08.552Z,39.85
2023-03-06T15:54:35.799Z,40.11
2023-03-06T15:57:06.171Z,40.26
2023-03-06T15:59:41.526Z,40.59
2023-03-06T16:02:17.150Z,40.79
2023-03-06T16:04:44.317Z,41.12
2023-03-06T16:07:11.634Z,41.00
2023-03-06T16:09:38.426Z,41.12
2023-03-06T16:12:05.930Z,41.25
2023-03-06T16:14:32.686Z,41.45
2023-03-06T16:16:59.937Z,41.82
2023-03-06T16:19:27.789Z,41.82
2023-03-06T16:21:55.848Z,41.96
2023-03-06T16:24:24.076Z,42.39
2023-03-06T16:26:52.586Z,43.04
2023-03-06T16:29:25.084Z,43.16
2023-03-06T16:31:55.262Z,43.77
2023-03-06T16:34:22.131Z,43.86
2023-03-06T16:36:49.575Z,44.39
2023-03-06T16:39:18.864Z,44.82
2023-03-06T16:41:49.463Z,44.93
2023-03-06T16:44:16.690Z,45.18
2023-03-06T16:46:46.976Z,45.31
2023-03-06T16:49:16.925Z,45.52
2023-03-06T16:51:44.507Z,45.88
2023-03-06T16:54:12.128Z,46.11
2023-03-06T16:56:38.799Z,46.39
2023-03-06T16:59:05.502Z,47.02
2023-03-06T17:01:32.285Z,47.33
2023-03-06T17:03:59.063Z,47.16
2023-03-06T17:06:25.817Z,47.81
2023-03-06T17:08:52.629Z,47.92
2023-03-06T17:11:22.006Z,48.33
2023-03-06T17:13:48.913Z,48.31
2023-03-06T17:16:16.721Z,48.44
2023-03-06T17:18:45.531Z,48.83
2023-03-06T17:21:15.753Z,49.06
2023-03-06T17:23:42.913Z,49.54
2023-03-06T17:26:12.866Z,49.58
2023-03-06T17:28:40.286Z,49.63
2023-03-06T17:31:13.166Z,49.67
2023-03-06T17:33:40.092Z,49.99
2023-03-06T17:36:07.431Z,50.10
2023-03-06T17:38:34.652Z,50.50
2023-03-06T17:41:06.187Z,50.70
2023-03-06T17:43:33.752Z,50.84
2023-03-06T17:46:08.758Z,51.40
2023-03-06T17:48:36.271Z,51.71
2023-03-06T17:51:03.657Z,51.77
2023-03-06T17:53:30.357Z,51.49
2023-03-06T17:55:59.993Z,51.56
2023-03-06T17:58:27.220Z,51.80
2023-03-06T18:00:53.844Z,51.95
2023-03-06T18:03:21.101Z,52.30
2023-03-06T18:05:47.882Z,52.48
2023-03-06T18:08:14.564Z,52.24
2023-03-06T18:10:43.494Z,52.64
2023-03-06T18:13:10.993Z,52.19
2023-03-06T18:15:41.630Z,52.38
2023-03-06T18:18:08.950Z,52.41
2023-03-06T18:20:41.051Z,52.44
2023-03-06T18:23:07.851Z,52.56
2023-03-06T18:25:38.108Z,52.60
2023-03-06T18:28:05.993Z,52.98
2023-03-06T18:30:36.316Z,52.71
2023-03-06T18:33:03.052Z,53.03
2023-03-06T18:35:29.707Z,52.96
2023-03-06T18:37:56.353Z,53.27
2023-03-06T18:40:24.850Z,53.21
2023-03-06T18:42:54.847Z,53.43
2023-03-06T18:45:21.619Z,53.22
2023-03-06T18:47:48.226Z,53.22
2023-03-06T18:50:16.516Z,52.90
2023-03-06T18:52:44.132Z,53.25
2023-03-06T18:55:11.111Z,53.33
2023-03-06T18:57:38.101Z,53.39
2023-03-06T19:00:06.739Z,53.55
2023-03-06T19:02:33.483Z,53.22
2023-03-06T19:05:00.124Z,53.31
2023-03-06T19:07:26.858Z,53.41
2023-03-06T19:09:53.542Z,53.89
2023-03-06T19:12:20.220Z,53.75
2023-03-06T19:14:48.447Z,53.80
2023-03-06T19:17:15.141Z,53.96
2023-03-06T19:19:41.713Z,54.15
2023-03-06T19:22:08.429Z,54.30
2023-03-06T19:24:35.220Z,54.48
2023-03-06T19:27:01.877Z,54.64
2023-03-06T19:29:28.747Z,54.67
2023-03-06T19:31:57.338Z,54.84
2023-03-06T19:34:24.155Z,55.17
2023-03-06T19:36:51.041Z,55.10
2023-03-06T19:39:17.652Z,55.33
2023-03-06T19:41:46.420Z,55.49
2023-03-06T19:44:14.608Z,55.62
2023-03-06T19:46:41.435Z,55.68
2023-03-06T19:49:12.139Z,55.56
2023-03-06T19:51:39.052Z,55.62
2023-03-06T19:54:05.845Z,55.49
2023-03-06T19:56:33.710Z,55.58
2023-03-06T19:59:00.561Z,55.44
2023-03-06T20:01:28.249Z,55.59
2023-03-06T20:03:59.442Z,55.64
2023-03-06T20:06:29.061Z,55.93
2023-03-06T20:08:56.120Z,55.66
2023-03-06T20:11:25.764Z,55.47
2023-03-06T20:13:54.277Z,55.63
2023-03-06T20:16:21.155Z,55.36
2023-03-06T20:18:47.811Z,55.50
2023-03-06T20:21:14.769Z,55.44
2023-03-06T20:23:41.965Z,55.18
2023-03-06T20:26:11.887Z,55.52
2023-03-06T20:28:39.948Z,55.02
2023-03-06T20:31:18.236Z,54.62
2023-03-06T20:33:48.057Z,54.45
2023-03-06T20:36:17.710Z,54.29
2023-03-06T20:38:45.450Z,54.41
2023-03-06T20:41:20.947Z,54.44
2023-03-06T20:43:48.283Z,54.74
2023-03-06T20:46:15.569Z,54.60
2023-03-06T20:48:43.368Z,55.04
2023-03-06T20:51:24.480Z,55.13
2023-03-06T20:53:55.815Z,54.83
2023-03-06T20:56:25.883Z,55.12
2023-03-06T20:58:53.221Z,55.02
2023-03-06T21:01:31.407Z,54.81
2023-03-06T21:03:59.796Z,54.86
2023-03-06T21:06:28.533Z,54.49
2023-03-06T21:08:57.035Z,54.60
2023-03-06T21:11:24.482Z,54.58
2023-03-06T21:13:52.715Z,54.89
2023-03-06T21:16:21.949Z,54.75
2023-03-06T21:18:48.577Z,54.96
2023-03-06T21:21:18.486Z,54.67
2023-03-06T21:23:46.829Z,54.78
2023-03-06T21:26:19.437Z,54.77
2023-03-06T21:28:46.559Z,55.01
2023-03-06T21:31:15.204Z,55.42
2023-03-06T21:33:42.118Z,55.23
2023-03-06T21:36:09.673Z,55.39
2023-03-06T21:38:36.815Z,55.17
2023-03-06T21:41:28.960Z,55.10
2023-03-06T21:43:57.317Z,54.99
2023-03-06T21:46:24.498Z,55.08
2023-03-06T21:48:51.608Z,54.96
2023-03-06T21:51:20.307Z,54.99
2023-03-06T21:53:48.576Z,55.10
2023-03-06T21:56:17.763Z,54.94
2023-03-06T21:58:45.553Z,54.93
2023-03-06T22:01:31.500Z,55.15
2023-03-06T22:04:00.604Z,55.14
2023-03-06T22:06:28.910Z,55.01
2023-03-06T22:08:56.480Z,55.51
2023-03-06T22:11:24.943Z,55.73
2023-03-06T22:13:53.456Z,55.27
2023-03-06T22:16:20.903Z,55.39
2023-03-06T22:18:50.024Z,54.97
2023-03-06T22:21:19.198Z,55.19
2023-03-06T22:23:53.020Z,55.33
2023-03-06T22:26:20.611Z,55.23
2023-03-06T22:28:47.323Z,55.08
2023-03-06T22:31:17.197Z,55.20
2023-03-06T22:33:44.580Z,55.42
2023-03-06T22:36:14.390Z,55.14
2023-03-06T22:38:44.033Z,54.95
2023-03-06T22:41:12.281Z,55.12
2023-03-06T22:43:39.081Z,54.90
2023-03-06T22:46:25.716Z,54.76
2023-03-06T22:48:52.560Z,54.57
2023-03-06T22:51:20.967Z,54.12
2023-03-06T22:53:48.721Z,53.64
2023-03-06T22:56:17.928Z,53.73
2023-03-06T22:58:45.029Z,53.80
2023-03-06T23:01:20.450Z,53.86
2023-03-06T23:03:49.817Z,54.09
2023-03-06T23:06:26.003Z,54.26
2023-03-06T23:09:08.131Z,54.15
2023-03-06T23:11:35.336Z,54.60
2023-03-06T23:14:02.371Z,54.27
2023-03-06T23:16:29.375Z,54.62
2023-03-06T23:18:56.217Z,54.65
2023-03-06T23:21:24.328Z,54.45
2023-03-06T23:23:52.916Z,54.59
2023-03-06T23:26:23.543Z,54.48
2023-03-06T23:28:50.246Z,54.58
2023-03-06T23:31:20.175Z,53.99
2023-03-06T23:33:47.942Z,54.17
2023-03-06T23:36:17.079Z,54.05
2023-03-06T23:38:44.774Z,53.98
2023-03-06T23:41:14.786Z,54.40
2023-03-06T23:43:41.788Z,54.46
2023-03-06T23:46:09.030Z,54.63
2023-03-06T23:48:37.431Z,54.38
2023-03-06T23:51:13.706Z,54.73
2023-03-06T23:53:40.768Z,54.95
2023-03-06T23:56:07.986Z,55.29
2023-03-06T23:58:35.249Z,55.38
